Time;durP1;ratioP1;P1;durP2;ratioP2;P2;SDS_P1;SDS_P2;PMS_P1;PMS_P2;Temp;Humidity;BMP_temperature;BMP_pressure;BME280_temperature;BME280_humidity;BME280_pressure;Samples;Min_cycle;Max_cycle;Signal;HPM_P1;HPM_P2
2022/08/08 00:01:08;;;;;;;3.97;1.53;;;25.50;37.60;;;;;;6183353;23;20926;-88
2022/08/08 00:03:47;;;;;;;1.40;1.13;;;25.60;37.60;;;;;;6181968;23;20439;-87
2022/08/08 00:06:29;;;;;;;1.23;1.13;;;25.50;37.60;;;;;;6185201;23;20412;-87
2022/08/08 00:09:08;;;;;;;2.80;1.60;;;25.60;37.70;;;;;;6184347;23;20519;-88
2022/08/08 00:11:42;;;;;;;1.30;1.20;;;25.50;37.60;;;;;;6158367;23;20847;-86
2022/08/08 00:14:47;;;;;;;1.50;1.40;;;25.60;37.70;;;;;;6156955;23;20432;-87
2022/08/08 00:17:40;;;;;;;1.97;1.57;;;25.50;37.70;;;;;;6183712;23;20381;-88
2022/08/08 00:20:35;;;;;;;1.40;1.30;;;25.50;37.70;;;;;;6183418;23;20397;-87
2022/08/08 00:23:07;;;;;;;1.60;1.40;;;25.50;37.70;;;;;;6182062;23;20954;-87
2022/08/08 00:25:39;;;;;;;1.50;1.40;;;25.50;37.70;;;;;;6158269;23;20396;-86
2022/08/08 00:28:24;;;;;;;2.27;1.50;;;25.50;37.80;;;;;;6182579;23;20471;-86
2022/08/08 00:31:12;;;;;;;1.73;1.23;;;25.50;37.80;;;;;;6184288;23;20444;-86
2022/08/08 00:37:14;;;;;;;1.90;1.30;;;25.50;37.80;;;;;;6158688;23;20400;-88
2022/08/08 00:40:46;;;;;;;2.33;1.30;;;25.50;37.90;;;;;;6158324;23;20495;-88
2022/08/08 00:43:56;;;;;;;2.37;1.50;;;25.50;37.80;;;;;;6181543;23;20523;-87
2022/08/08 00:46:58;;;;;;;1.80;1.70;;;25.50;37.90;;;;;;6182689;23;20467;-88
2022/08/08 00:49:58;;;;;;;1.77;1.40;;;25.50;37.90;;;;;;6119426;23;21009;-87
2022/08/08 00:52:44;;;;;;;1.47;1.37;;;25.50;37.90;;;;;;6157095;23;20470;-86
2022/08/08 00:55:55;;;;;;;1.20;1.10;;;25.50;37.90;;;;;;6158058;23;20420;-87
2022/08/08 00:58:59;;;;;;;1.60;1.50;;;25.50;37.90;;;;;;6151912;23;20429;-88
2022/08/08 01:01:34;;;;;;;1.67;1.47;;;25.50;38.00;;;;;;6129817;23;20402;-87
2022/08/08 01:05:06;;;;;;;3.23;1.63;;;25.50;38.10;;;;;;6174271;23;20432;-87
2022/08/08 01:08:08;;;;;;;1.93;1.83;;;25.50;38.10;;;;;;6143393;23;20432;-87
2022/08/08 01:11:24;;;;;;;1.83;1.50;;;25.50;38.10;;;;;;6158080;23;20396;-89
2022/08/08 01:14:31;;;;;;;1.40;1.30;;;25.40;38.00;;;;;;6064062;23;20517;-87
2022/08/08 01:18:06;;;;;;;1.97;1.43;;;25.50;38.00;;;;;;6157796;23;20484;-88
2022/08/08 01:21:06;;;;;;;1.53;1.43;;;25.40;38.00;;;;;;6157875;23;20428;-89
2022/08/08 01:24:32;;;;;;;1.67;1.50;;;25.50;38.10;;;;;;6156505;23;20511;-87
2022/08/08 01:27:22;;;;;;;1.87;1.23;;;25.50;38.10;;;;;;6182697;23;20425;-87
2022/08/08 01:30:42;;;;;;;2.00;1.70;;;25.50;38.10;;;;;;6157125;23;20404;-87
2022/08/08 01:33:57;;;;;;;2.00;1.60;;;25.40;38.10;;;;;;6180885;23;20436;-86
2022/08/08 01:37:05;;;;;;;1.30;1.20;;;25.40;38.10;;;;;;6182929;23;20385;-89
2022/08/08 01:40:11;;;;;;;1.97;1.20;;;25.40;38.10;;;;;;6182063;23;20424;-87
2022/08/08 01:42:49;;;;;;;2.53;1.50;;;25.40;38.10;;;;;;6156031;23;20466;-87
2022/08/08 01:45:45;;;;;;;1.43;1.33;;;25.40;38.10;;;;;;6157771;23;20384;-88
2022/08/08 01:48:43;;;;;;;1.80;1.33;;;25.40;38.10;;;;;;6129524;23;20465;-87
2022/08/08 01:51:38;;;;;;;2.60;1.57;;;25.40;38.20;;;;;;6127052;23;20398;-87
2022/08/08 01:54:45;;;;;;;1.57;1.47;;;25.40;38.30;;;;;;6127147;23;20464;-88
2022/08/08 01:57:43;;;;;;;1.53;1.43;;;25.40;38.20;;;;;;6127161;23;20432;-86
2022/08/08 02:00:40;;;;;;;1.53;1.43;;;25.40;38.30;;;;;;6127595;23;20382;-88
2022/08/08 02:03:22;;;;;;;1.30;1.20;;;25.40;38.80;;;;;;6126040;23;20441;-87
2022/08/08 02:06:22;;;;;;;1.43;1.33;;;25.40;38.30;;;;;;6128084;23;20417;-88
2022/08/08 02:09:09;;;;;;;1.60;1.50;;;25.40;38.30;;;;;;6127620;23;20767;-88
2022/08/08 02:11:48;;;;;;;1.60;1.50;;;25.40;38.40;;;;;;6152085;23;20440;-87
2022/08/08 02:14:35;;;;;;;2.57;1.50;;;25.40;38.40;;;;;;6126871;23;20438;-89
2022/08/08 02:17:29;;;;;;;2.30;2.03;;;25.40;38.50;;;;;;6128209;23;20389;-88
2022/08/08 02:20:28;;;;;;;1.40;1.30;;;25.40;38.40;;;;;;6127510;23;20512;-87
2022/08/08 02:23:23;;;;;;;2.40;1.60;;;25.40;38.50;;;;;;6126953;23;20437;-86
2022/08/08 02:26:09;;;;;;;1.40;1.30;;;25.40;38.50;;;;;;6128027;23;20457;-88
2022/08/08 02:28:53;;;;;;;1.77;1.50;;;25.40;38.50;;;;;;6127034;23;20434;-89
2022/08/08 02:31:38;;;;;;;1.47;1.37;;;25.40;38.50;;;;;;6128093;23;20778;-88
2022/08/08 02:34:40;;;;;;;1.87;1.40;;;25.40;38.60;;;;;;6126606;23;20520;-88
2022/08/08 02:37:39;;;;;;;1.40;1.30;;;25.30;38.50;;;;;;6128246;23;20437;-89
2022/08/08 02:40:33;;;;;;;2.23;2.03;;;25.40;38.60;;;;;;6152538;23;20485;-88
2022/08/08 02:43:38;;;;;;;1.77;1.67;;;25.30;38.60;;;;;;6152469;23;20437;-86
2022/08/08 02:46:43;;;;;;;1.67;1.53;;;25.30;38.50;;;;;;6131051;23;20389;-88
2022/08/08 02:49:40;;;;;;;3.80;2.00;;;25.30;38.70;;;;;;6155586;23;20473;-87
2022/08/08 02:52:39;;;;;;;1.40;1.30;;;25.30;38.50;;;;;;6156777;23;20503;-88
2022/08/08 02:55:44;;;;;;;2.37;1.60;;;25.30;38.60;;;;;;6157224;23;20413;-88
2022/08/08 02:59:13;;;;;;;2.30;1.70;;;25.30;38.60;;;;;;6121715;23;20930;-86
2022/08/08 03:02:29;;;;;;;1.90;1.80;;;25.30;38.60;;;;;;6077057;23;20423;-87
2022/08/08 03:05:35;;;;;;;1.73;1.63;;;25.30;38.60;;;;;;6180860;23;20459;-88
2022/08/08 03:08:51;;;;;;;2.00;1.90;;;25.30;38.60;;;;;;6156484;23;20467;-87
2022/08/08 03:12:09;;;;;;;2.77;2.00;;;25.20;38.60;;;;;;6159207;23;20423;-87
2022/08/08 03:15:09;;;;;;;2.23;2.03;;;25.30;38.70;;;;;;6133420;23;20984;-87
2022/08/08 03:18:02;;;;;;;2.50;2.03;;;25.20;38.60;;;;;;6158716;23;20420;-87
2022/08/08 03:20:46;;;;;;;2.80;2.10;;;25.20;38.70;;;;;;6159085;23;20471;-87
2022/08/08 03:23:26;;;;;;;2.50;1.77;;;25.20;38.70;;;;;;6157976;23;20479;-87
2022/08/08 03:26:19;;;;;;;1.87;1.77;;;25.20;38.80;;;;;;6159068;23;20384;-87
2022/08/08 03:28:56;;;;;;;1.70;1.60;;;25.20;38.80;;;;;;6158352;23;20431;-88
2022/08/08 03:34:28;;;;;;;1.53;1.43;;;25.20;38.90;;;;;;6110978;23;20495;-89
2022/08/08 03:36:57;;;;;;;2.10;2.00;;;25.20;38.80;;;;;;6159153;23;20403;-89
2022/08/08 03:39:26;;;;;;;2.03;1.83;;;25.20;38.80;;;;;;6183194;23;20436;-88
2022/08/08 03:41:55;;;;;;;2.17;2.00;;;25.20;38.90;;;;;;6158590;23;20384;-87
2022/08/08 03:44:44;;;;;;;2.13;1.70;;;25.20;38.80;;;;;;6157920;23;20435;-86
2022/08/08 03:47:21;;;;;;;1.93;1.83;;;25.20;38.90;;;;;;6144956;23;20472;-87
2022/08/08 03:49:54;;;;;;;1.80;1.70;;;25.20;38.80;;;;;;6128053;23;20426;-88
2022/08/08 03:52:33;;;;;;;1.73;1.63;;;25.10;38.80;;;;;;6129076;23;20417;-87
2022/08/08 03:55:10;;;;;;;4.90;1.70;;;25.20;39.00;;;;;;6129385;23;20406;-88
2022/08/08 03:57:59;;;;;;;1.90;1.80;;;25.10;38.90;;;;;;6128380;23;20444;-88
2022/08/08 04:00:52;;;;;;;1.80;1.70;;;25.10;39.00;;;;;;6129660;23;20489;-87
2022/08/08 04:03:44;;;;;;;2.03;1.93;;;25.10;38.90;;;;;;6127520;23;20441;-87
2022/08/08 04:06:32;;;;;;;1.90;1.67;;;25.10;38.90;;;;;;6129517;23;20376;-87
2022/08/08 04:09:06;;;;;;;1.90;1.80;;;25.10;38.90;;;;;;6128545;23;21002;-87
2022/08/08 04:11:43;;;;;;;1.70;1.60;;;25.10;40.20;;;;;;6178088;23;20385;-87
2022/08/08 04:14:33;;;;;;;1.90;1.80;;;25.10;39.10;;;;;;6127821;23;20500;-88
2022/08/08 04:17:05;;;;;;;2.13;1.93;;;25.10;39.10;;;;;;6129697;23;20390;-86
2022/08/08 04:19:55;;;;;;;2.13;2.03;;;25.10;39.10;;;;;;6127920;23;20433;-88
2022/08/08 04:22:25;;;;;;;2.30;2.10;;;25.10;39.10;;;;;;6128553;23;20420;-88
2022/08/08 04:24:58;;;;;;;2.33;2.10;;;25.10;39.00;;;;;;6177468;23;20484;-88
2022/08/08 04:27:28;;;;;;;1.83;1.73;;;25.10;39.10;;;;;;6128954;23;20410;-88
2022/08/08 04:30:17;;;;;;;3.10;2.23;;;25.10;39.10;;;;;;6178369;23;20409;-88
2022/08/08 04:32:50;;;;;;;2.27;2.03;;;25.10;39.10;;;;;;6177346;23;20899;-88
2022/08/08 04:35:23;;;;;;;1.97;1.77;;;25.10;39.20;;;;;;6128638;23;20376;-88
2022/08/08 04:37:53;;;;;;;2.87;2.60;;;25.10;39.40;;;;;;6128317;23;20389;-88
2022/08/08 04:40:26;;;;;;;2.90;2.00;;;25.10;39.30;;;;;;6129335;23;20417;-86
2022/08/08 04:42:58;;;;;;;2.33;2.13;;;25.10;39.40;;;;;;6127463;23;20429;-87
2022/08/08 04:45:49;;;;;;;2.63;2.43;;;25.10;39.40;;;;;;6129007;23;20445;-86
2022/08/08 04:48:18;;;;;;;2.17;2.00;;;25.00;39.40;;;;;;6153209;23;20540;-87
2022/08/08 04:50:50;;;;;;;2.17;1.97;;;25.00;39.40;;;;;;6158580;23;20377;-86
2022/08/08 04:53:23;;;;;;;2.30;2.10;;;25.00;39.40;;;;;;6156985;23;20998;-87
2022/08/08 04:56:13;;;;;;;3.10;2.60;;;25.00;39.40;;;;;;6158061;23;20411;-86
2022/08/08 04:58:42;;;;;;;1.77;1.67;;;25.00;39.40;;;;;;6157030;23;20429;-87
2022/08/08 05:01:13;;;;;;;2.47;2.13;;;25.00;39.40;;;;;;6183295;23;20859;-89
2022/08/08 05:03:48;;;;;;;2.70;2.50;;;24.90;39.30;;;;;;6181974;23;20464;-88
2022/08/08 05:06:40;;;;;;;6.03;3.30;;;24.90;39.40;;;;;;6157992;23;20393;-88
2022/08/08 05:09:10;;;;;;;3.43;3.10;;;24.80;39.20;;;;;;6182554;23;20790;-87
2022/08/08 05:11:41;;;;;;;3.90;3.60;;;24.80;40.50;;;;;;6157552;23;20384;-87
2022/08/08 05:14:16;;;;;;;4.90;3.30;;;24.70;39.10;;;;;;6157804;23;20460;-90
2022/08/08 05:16:52;;;;;;;3.20;2.90;;;24.70;39.20;;;;;;6158302;23;20385;-87
2022/08/08 05:19:34;;;;;;;7.13;3.23;;;24.70;39.10;;;;;;6157118;23;20437;-88
2022/08/08 05:22:27;;;;;;;5.37;3.73;;;24.60;39.10;;;;;;6158485;23;20419;-89
2022/08/08 05:24:57;;;;;;;3.33;3.03;;;24.60;39.10;;;;;;6157701;23;20436;-89
2022/08/08 05:27:26;;;;;;;6.30;3.73;;;24.60;39.10;;;;;;6182701;23;20883;-88
2022/08/08 05:30:02;;;;;;;3.27;2.97;;;24.50;39.00;;;;;;6157937;23;20440;-88
2022/08/08 05:32:42;;;;;;;3.60;3.20;;;24.50;39.00;;;;;;6182258;23;20409;-87
2022/08/08 05:35:15;;;;;;;6.07;3.57;;;24.50;39.00;;;;;;6158279;23;20382;-87
2022/08/08 05:37:48;;;;;;;5.83;3.90;;;24.50;39.00;;;;;;6157380;23;20391;-88
2022/08/08 05:40:46;;;;;;;3.60;2.90;;;24.50;39.00;;;;;;6175525;23;20427;-87
2022/08/08 05:43:24;;;;;;;3.67;3.20;;;24.50;39.00;;;;;;6156940;23;20443;-90
2022/08/08 05:46:15;;;;;;;4.40;3.07;;;24.50;39.00;;;;;;6157722;23;20405;-87
2022/08/08 05:48:45;;;;;;;5.80;3.17;;;24.40;38.90;;;;;;6181550;23;20441;-85
2022/08/08 05:51:24;;;;;;;4.07;3.67;;;24.40;38.90;;;;;;6158250;23;20380;-87
2022/08/08 05:53:57;;;;;;;5.33;3.50;;;24.40;38.90;;;;;;6157106;23;20482;-88
2022/08/08 05:56:46;;;;;;;5.20;3.40;;;24.40;38.90;;;;;;6157990;23;20421;-87
2022/08/08 05:59:26;;;;;;;5.37;3.13;;;24.40;38.90;;;;;;6157010;23;20464;-89
2022/08/08 06:05:20;;;;;;;3.70;3.33;;;24.40;38.90;;;;;;6182183;23;20792;-89
2022/08/08 06:08:09;;;;;;;4.13;3.73;;;24.30;38.80;;;;;;6182252;23;20504;-87
2022/08/08 06:11:02;;;;;;;4.80;3.77;;;24.30;38.80;;;;;;6158316;23;20401;-88
2022/08/08 06:13:32;;;;;;;4.10;3.70;;;24.30;38.80;;;;;;6155727;23;20433;-87
2022/08/08 06:16:16;;;;;;;7.10;3.83;;;24.30;38.80;;;;;;6157875;23;20508;-87
2022/08/08 06:19:12;;;;;;;4.73;3.47;;;24.30;38.90;;;;;;6182043;23;20884;-88
2022/08/08 06:21:48;;;;;;;4.13;3.60;;;24.30;38.80;;;;;;6157377;23;20455;-89
2022/08/08 06:24:40;;;;;;;4.07;3.70;;;24.30;38.90;;;;;;6157049;23;20467;-86
2022/08/08 06:27:25;;;;;;;7.43;4.40;;;24.30;39.10;;;;;;6157347;23;20419;-89
2022/08/08 06:30:00;;;;;;;4.20;3.87;;;24.20;39.20;;;;;;6157467;23;20955;-89
2022/08/08 06:32:44;;;;;;;5.73;3.60;;;24.20;39.20;;;;;;6132296;23;20495;-88
2022/08/08 06:35:19;;;;;;;4.47;3.80;;;24.20;39.20;;;;;;6157988;23;20392;-88
2022/08/08 06:38:11;;;;;;;3.27;2.97;;;24.20;39.40;;;;;;6156895;23;20432;-89
2022/08/08 06:40:44;;;;;;;5.03;4.20;;;24.20;39.50;;;;;;6159023;23;20467;-89
2022/08/08 06:43:28;;;;;;;6.00;4.20;;;24.20;39.60;;;;;;6157337;23;20443;-89
2022/08/08 06:46:05;;;;;;;10.00;3.97;;;24.20;39.60;;;;;;6184039;23;20381;-89
2022/08/08 06:48:42;;;;;;;6.93;4.47;;;24.30;39.50;;;;;;6123483;23;20838;-88
2022/08/08 06:51:16;;;;;;;5.73;4.80;;;24.30;39.30;;;;;;6128746;23;20425;-88
2022/08/08 06:53:47;;;;;;;5.50;4.77;;;24.30;39.10;;;;;;6128343;23;20437;-88
2022/08/08 06:56:26;;;;;;;4.53;4.13;;;24.40;39.00;;;;;;6128716;23;20389;-87
2022/08/08 06:58:58;;;;;;;5.10;4.00;;;24.40;39.10;;;;;;6127555;23;20433;-88
2022/08/08 07:01:29;;;;;;;7.27;3.80;;;24.30;39.30;;;;;;6128863;23;20416;-88
2022/08/08 07:04:24;;;;;;;5.30;4.20;;;24.30;39.10;;;;;;6127397;23;20954;-90
2022/08/08 07:07:17;;;;;;;5.13;4.40;;;24.30;39.30;;;;;;6128459;23;20852;-89
2022/08/08 07:09:55;;;;;;;5.93;4.10;;;24.30;39.30;;;;;;6124554;23;20446;-88
2022/08/08 07:12:38;;;;;;;4.77;3.70;;;24.30;40.10;;;;;;6128200;23;20915;-87
2022/08/08 07:15:08;;;;;;;6.27;4.07;;;24.30;39.70;;;;;;6128285;23;20444;-87
2022/08/08 07:18:02;;;;;;;4.20;3.90;;;24.30;40.90;;;;;;6127568;23;20378;-89
2022/08/08 07:20:54;;;;;;;3.87;3.47;;;24.30;39.70;;;;;;6128477;23;20441;-88
2022/08/08 07:23:31;;;;;;;5.53;3.50;;;24.30;39.70;;;;;;6126697;23;20433;-89
2022/08/08 07:26:22;;;;;;;3.47;3.17;;;24.30;39.50;;;;;;6128875;23;20402;-88
2022/08/08 07:29:02;;;;;;;3.10;2.80;;;24.30;39.50;;;;;;6127890;23;20512;-89
2022/08/08 07:31:36;;;;;;;3.50;3.20;;;24.30;39.40;;;;;;6128529;23;20494;-88
2022/08/08 07:34:05;;;;;;;3.87;2.90;;;24.30;39.60;;;;;;6127297;23;20433;-88
2022/08/08 07:36:38;;;;;;;3.57;3.27;;;24.40;39.60;;;;;;6128344;23;20481;-87
2022/08/08 07:39:23;;;;;;;4.23;3.20;;;24.40;39.60;;;;;;6127466;23;20440;-88
2022/08/08 07:41:58;;;;;;;3.20;3.00;;;24.40;39.60;;;;;;6128005;23;20432;-90
2022/08/08 07:44:35;;;;;;;2.73;2.50;;;24.40;39.50;;;;;;6151412;23;20429;-89
2022/08/08 07:47:07;;;;;;;3.43;3.00;;;24.40;39.60;;;;;;6139269;23;20419;-89
2022/08/08 07:49:38;;;;;;;3.53;2.73;;;24.40;39.60;;;;;;6156022;23;20432;-87
2022/08/08 07:52:12;;;;;;;3.73;3.40;;;24.40;39.50;;;;;;6157791;23;20423;-89
2022/08/08 07:55:02;;;;;;;5.30;3.67;;;24.40;39.50;;;;;;6156748;23;20436;-89
2022/08/08 07:57:40;;;;;;;3.77;2.77;;;24.40;39.50;;;;;;6158948;23;20415;-87
2022/08/08 08:00:18;;;;;;;3.47;3.17;;;24.40;39.50;;;;;;6183836;23;20409;-91
2022/08/08 08:03:05;;;;;;;4.00;3.13;;;24.40;39.50;;;;;;6158000;23;20463;-88
2022/08/08 08:05:44;;;;;;;3.37;2.83;;;24.40;39.50;;;;;;6159155;23;20392;-87
2022/08/08 08:08:28;;;;;;;3.17;2.47;;;24.40;39.50;;;;;;6182895;23;20439;-88
2022/08/08 08:10:59;;;;;;;3.00;2.80;;;24.40;39.50;;;;;;6183587;23;20922;-88
2022/08/08 08:13:35;;;;;;;3.03;2.50;;;24.40;39.50;;;;;;6181767;23;20428;-87
2022/08/08 08:16:25;;;;;;;2.87;2.60;;;24.40;39.50;;;;;;6183983;23;20382;-88
2022/08/08 08:18:59;;;;;;;5.00;2.80;;;24.40;39.60;;;;;;6157171;23;20495;-87
2022/08/08 08:21:38;;;;;;;2.97;2.77;;;24.40;39.50;;;;;;6158932;23;20434;-89
2022/08/08 08:24:46;;;;;;;4.10;3.37;;;24.40;39.60;;;;;;6182734;23;20438;-88
2022/08/08 08:27:20;;;;;;;3.63;3.33;;;24.40;39.50;;;;;;6158965;23;20389;-87
2022/08/08 08:29:53;;;;;;;3.93;2.97;;;24.40;39.60;;;;;;6182966;23;20428;-88
2022/08/08 08:32:25;;;;;;;3.13;2.70;;;24.40;39.70;;;;;;6183042;23;20421;-88
2022/08/08 08:35:08;;;;;;;3.30;2.90;;;24.40;39.70;;;;;;6156970;23;20404;-86
2022/08/08 08:37:38;;;;;;;5.70;2.90;;;24.40;39.70;;;;;;6158891;23;20435;-90
2022/08/08 08:40:28;;;;;;;3.37;3.07;;;24.40;39.70;;;;;;6183427;23;20463;-89
2022/08/08 08:43:01;;;;;;;3.63;3.20;;;24.40;39.70;;;;;;6157002;23;20416;-88
2022/08/08 08:45:31;;;;;;;3.33;3.03;;;24.40;39.70;;;;;;6158513;23;20400;-88
2022/08/08 08:48:04;;;;;;;4.60;3.10;;;24.40;39.80;;;;;;6182601;23;20453;-88
2022/08/08 08:50:38;;;;;;;3.63;3.23;;;24.40;39.80;;;;;;6183183;23;20416;-88
2022/08/08 08:53:12;;;;;;;3.23;2.93;;;24.40;39.90;;;;;;6157564;23;20466;-86
2022/08/08 08:56:11;;;;;;;3.30;3.00;;;24.40;39.90;;;;;;6183305;23;20408;-88
2022/08/08 08:58:45;;;;;;;3.17;2.87;;;24.40;39.90;;;;;;6157625;23;20428;-89
2022/08/08 09:01:47;;;;;;;3.50;3.20;;;24.40;39.90;;;;;;6178673;23;20406;-88
2022/08/08 09:04:25;;;;;;;3.70;2.67;;;24.40;39.90;;;;;;6157177;23;20950;-88
2022/08/08 09:07:18;;;;;;;4.77;3.90;;;24.40;40.00;;;;;;6158179;23;20902;-88
2022/08/08 09:09:52;;;;;;;5.63;3.50;;;24.40;40.20;;;;;;6157620;23;20948;-88
2022/08/08 09:12:35;;;;;;;3.60;3.30;;;24.40;40.20;;;;;;6157749;23;20507;-88
2022/08/08 09:15:07;;;;;;;4.63;2.87;;;24.40;40.10;;;;;;6157697;23;20428;-88
2022/08/08 09:17:41;;;;;;;3.30;3.00;;;24.40;40.10;;;;;;6157355;23;20385;-87
2022/08/08 09:20:25;;;;;;;2.80;2.57;;;24.40;40.10;;;;;;6182019;23;20376;-88
2022/08/08 09:23:15;;;;;;;2.90;2.30;;;24.40;40.20;;;;;;6182161;23;20511;-89
2022/08/08 09:25:51;;;;;;;3.33;2.87;;;24.40;40.20;;;;;;6158934;23;20373;-88
2022/08/08 09:28:33;;;;;;;2.57;2.37;;;24.40;40.20;;;;;;6157266;23;20433;-88
2022/08/08 09:31:14;;;;;;;3.60;2.80;;;24.40;40.20;;;;;;6158408;23;20413;-87
2022/08/08 09:33:52;;;;;;;2.77;2.57;;;24.40;40.30;;;;;;6156434;23;20436;-88
2022/08/08 09:36:46;;;;;;;5.63;3.20;;;24.40;40.40;;;;;;6155031;23;20460;-88
2022/08/08 09:39:42;;;;;;;6.27;2.97;;;24.40;40.20;;;;;;6157399;23;20449;-88
2022/08/08 09:42:15;;;;;;;4.53;3.07;;;24.40;39.80;;;;;;6183964;23;21002;-90
2022/08/08 09:44:59;;;;;;;5.70;2.90;;;24.50;39.70;;;;;;6158687;23;20956;-88
2022/08/08 09:47:44;;;;;;;5.53;3.10;;;24.50;39.40;;;;;;6158857;23;20736;-89
2022/08/08 09:50:33;;;;;;;2.83;2.50;;;24.60;39.10;;;;;;6159204;23;20389;-87
2022/08/08 09:53:03;;;;;;;4.57;3.17;;;24.60;39.10;;;;;;6180438;23;22111;-87
2022/08/08 09:55:51;;;;;;;5.27;2.67;;;24.60;39.10;;;;;;6157635;23;20424;-87
2022/08/08 09:58:38;;;;;;;5.73;2.57;;;24.60;39.10;;;;;;6153326;23;20939;-88
2022/08/08 10:01:10;;;;;;;5.87;2.97;;;24.70;39.10;;;;;;6157873;23;20373;-87
2022/08/08 10:04:01;;;;;;;6.10;2.60;;;24.60;38.70;;;;;;6156578;23;20440;-87
2022/08/08 10:06:32;;;;;;;6.70;2.70;;;24.60;39.10;;;;;;6182461;23;20412;-87
2022/08/08 10:09:03;;;;;;;3.13;2.77;;;24.60;40.30;;;;;;6156760;23;20483;-88
2022/08/08 10:11:32;;;;;;;2.30;2.07;;;24.60;39.10;;;;;;6156322;23;20459;-87
2022/08/08 10:14:20;;;;;;;2.50;2.30;;;24.60;39.40;;;;;;6156427;23;20519;-89
2022/08/08 10:17:07;;;;;;;3.40;3.10;;;24.60;39.10;;;;;;6156508;23;20377;-88
2022/08/08 10:20:00;;;;;;;3.03;2.00;;;24.50;39.00;;;;;;6181755;23;20432;-87
2022/08/08 10:22:32;;;;;;;3.43;2.47;;;24.50;39.00;;;;;;6157301;23;20481;-87
2022/08/08 10:25:06;;;;;;;4.37;2.60;;;24.50;39.00;;;;;;6156075;23;20434;-88
2022/08/08 10:27:44;;;;;;;2.93;2.33;;;24.50;39.30;;;;;;6155690;23;20372;-88
2022/08/08 10:30:17;;;;;;;3.67;2.50;;;24.50;39.40;;;;;;6157353;23;20377;-86
2022/08/08 10:33:09;;;;;;;5.00;2.00;;;24.50;39.60;;;;;;6131513;23;20464;-87
2022/08/08 10:35:40;;;;;;;2.93;2.33;;;24.50;39.50;;;;;;6156648;23;20967;-90
2022/08/08 10:38:30;;;;;;;2.47;2.27;;;24.50;39.60;;;;;;6157061;23;20433;-88
2022/08/08 10:41:03;;;;;;;2.47;2.17;;;24.50;39.50;;;;;;6157941;23;20384;-88
2022/08/08 10:43:38;;;;;;;4.80;2.20;;;24.50;39.40;;;;;;6155604;23;20447;-89
2022/08/08 10:48:57;;;;;;;3.13;2.10;;;24.50;39.60;;;;;;6156061;23;20438;-88
2022/08/08 10:51:29;;;;;;;3.33;2.13;;;24.50;39.60;;;;;;6157520;23;20452;-87
2022/08/08 10:54:21;;;;;;;2.60;2.13;;;24.50;39.60;;;;;;6156992;23;20432;-89
2022/08/08 10:56:57;;;;;;;4.60;2.60;;;24.50;39.70;;;;;;6181033;23;20376;-87
2022/08/08 10:59:27;;;;;;;4.87;2.90;;;24.50;39.70;;;;;;6181532;23;20436;-87
2022/08/08 11:01:59;;;;;;;2.80;2.40;;;24.50;39.70;;;;;;6156774;23;20416;-90
2022/08/08 11:04:29;;;;;;;2.83;2.57;;;24.50;39.00;;;;;;6155077;23;20431;-91
2022/08/08 11:07:07;;;;;;;4.03;2.77;;;24.50;39.00;;;;;;6157722;23;20381;-88
2022/08/08 11:10:00;;;;;;;3.80;2.70;;;24.50;39.30;;;;;;6155863;23;20515;-89
2022/08/08 11:12:29;;;;;;;3.40;2.40;;;24.50;39.50;;;;;;6180812;23;20432;-89
2022/08/08 11:15:05;;;;;;;2.47;2.27;;;24.50;39.50;;;;;;6155052;23;20432;-89
2022/08/08 11:17:35;;;;;;;3.30;2.60;;;24.50;40.60;;;;;;6181197;23;20859;-88
2022/08/08 11:20:24;;;;;;;2.40;1.70;;;24.50;39.40;;;;;;6180980;23;20415;-86
2022/08/08 11:22:57;;;;;;;3.00;2.50;;;24.50;39.10;;;;;;6179727;23;20444;-89
2022/08/08 11:25:28;;;;;;;2.97;2.13;;;24.50;39.30;;;;;;6180956;23;20473;-88
2022/08/08 11:28:22;;;;;;;2.70;2.50;;;24.50;39.50;;;;;;6155816;23;20899;-87
2022/08/08 11:30:56;;;;;;;4.50;2.77;;;24.50;40.80;;;;;;6182670;23;20389;-88
2022/08/08 11:33:27;;;;;;;2.50;2.20;;;24.50;39.60;;;;;;6155803;23;21013;-87
2022/08/08 11:36:16;;;;;;;4.23;2.97;;;24.50;39.40;;;;;;6182105;23;20376;-88
2022/08/08 11:38:47;;;;;;;2.60;2.10;;;24.50;39.40;;;;;;6156526;23;20432;-87
2022/08/08 11:41:23;;;;;;;2.60;2.40;;;24.50;39.40;;;;;;6158633;23;20396;-89
2022/08/08 11:44:00;;;;;;;2.78;2.40;;;24.50;39.20;;;;;;6158173;23;20446;-87
2022/08/08 11:46:30;;;;;;;4.47;2.40;;;24.60;39.70;;;;;;6158033;23;20624;-87
2022/08/08 11:49:03;;;;;;;3.50;3.00;;;24.60;39.20;;;;;;6157240;23;20440;-87
2022/08/08 11:51:34;;;;;;;3.97;2.50;;;24.60;39.00;;;;;;6182634;23;20384;-88
2022/08/08 11:54:18;;;;;;;5.63;2.90;;;24.60;39.10;;;;;;6180388;23;20466;-86
2022/08/08 11:57:12;;;;;;;3.20;2.90;;;24.60;38.80;;;;;;6158453;23;20436;-87
2022/08/08 11:59:47;;;;;;;2.67;2.47;;;24.60;38.80;;;;;;6157014;23;20432;-88
2022/08/08 12:02:49;;;;;;;5.10;2.67;;;24.70;38.90;;;;;;6157061;23;20431;-88
2022/08/08 12:05:19;;;;;;;2.57;2.33;;;24.60;39.00;;;;;;6182881;23;20412;-88
2022/08/08 12:07:51;;;;;;;3.03;2.33;;;24.60;39.10;;;;;;6157559;23;20385;-89
2022/08/08 12:10:23;;;;;;;3.07;2.20;;;24.60;39.10;;;;;;6158818;23;20755;-87
2022/08/08 12:13:02;;;;;;;2.30;2.10;;;24.60;39.10;;;;;;6157085;23;20832;-89
2022/08/08 12:15:35;;;;;;;4.50;2.23;;;24.60;39.10;;;;;;6184121;23;20373;-86
2022/08/08 12:18:16;;;;;;;2.60;2.27;;;24.60;39.10;;;;;;6156642;23;20440;-87
2022/08/08 12:20:52;;;;;;;2.83;1.90;;;24.60;39.10;;;;;;6158335;23;20372;-89
2022/08/08 12:23:29;;;;;;;2.67;2.40;;;24.60;39.10;;;;;;6181931;23;20515;-86
2022/08/08 12:26:23;;;;;;;4.00;2.20;;;24.60;39.10;;;;;;6182684;23;20439;-89
2022/08/08 12:29:18;;;;;;;2.80;2.47;;;24.60;39.10;;;;;;6182095;23;20495;-87
2022/08/08 12:32:00;;;;;;;2.03;1.90;;;24.60;39.10;;;;;;6158762;23;20468;-87
2022/08/08 12:34:43;;;;;;;2.67;2.47;;;24.60;39.10;;;;;;6157319;23;20439;-88
2022/08/08 12:37:20;;;;;;;3.17;2.33;;;24.60;39.10;;;;;;6159105;23;20385;-87
2022/08/08 12:39:49;;;;;;;3.70;2.10;;;24.60;39.10;;;;;;6157689;23;20428;-89
2022/08/08 12:42:30;;;;;;;4.20;2.03;;;24.60;39.10;;;;;;6181083;23;20503;-88
2022/08/08 12:45:04;;;;;;;2.50;2.30;;;24.60;39.10;;;;;;6156775;23;20428;-88
2022/08/08 12:48:00;;;;;;;3.23;2.10;;;24.70;39.20;;;;;;6161243;23;20464;-86
2022/08/08 12:50:49;;;;;;;2.07;1.97;;;24.60;39.10;;;;;;6127960;23;20404;-90
2022/08/08 12:53:23;;;;;;;3.20;2.60;;;24.70;39.10;;;;;;6126136;23;20496;-88
2022/08/08 12:56:00;;;;;;;2.07;1.90;;;24.70;39.10;;;;;;6128440;23;20381;-88
2022/08/08 12:58:52;;;;;;;1.70;1.60;;;24.70;39.20;;;;;;6153054;23;20444;-87
2022/08/08 13:01:34;;;;;;;2.23;2.00;;;24.70;39.10;;;;;;6128178;23;20389;-88
2022/08/08 13:04:15;;;;;;;3.40;2.27;;;24.70;39.10;;;;;;6121564;23;20477;-87
2022/08/08 13:06:56;;;;;;;2.33;2.07;;;24.70;39.10;;;;;;6125357;23;20382;-89
2022/08/08 13:09:39;;;;;;;2.73;2.10;;;24.70;39.10;;;;;;6127031;23;20444;-87
2022/08/08 13:12:31;;;;;;;2.37;2.17;;;24.70;39.20;;;;;;6127454;23;20414;-88
2022/08/08 13:15:04;;;;;;;2.60;2.30;;;24.70;39.10;;;;;;6127878;23;20469;-87
2022/08/08 13:17:33;;;;;;;2.40;2.20;;;24.70;39.10;;;;;;6128879;23;20374;-86
2022/08/08 13:20:22;;;;;;;2.30;2.10;;;24.70;39.10;;;;;;6127630;23;20778;-87
2022/08/08 13:22:56;;;;;;;2.07;1.90;;;24.70;39.10;;;;;;6126954;23;20777;-87
2022/08/08 13:25:45;;;;;;;3.00;1.93;;;24.70;39.10;;;;;;6127854;23;20919;-89
2022/08/08 13:28:31;;;;;;;2.50;1.93;;;24.70;39.20;;;;;;6127615;23;20520;-89
2022/08/08 13:31:02;;;;;;;2.23;1.87;;;24.70;39.10;;;;;;6128163;23;20751;-86
2022/08/08 13:33:32;;;;;;;2.10;1.97;;;24.70;39.10;;;;;;6126161;23;20433;-88
2022/08/08 13:36:10;;;;;;;2.70;1.90;;;24.70;39.10;;;;;;6152696;23;20411;-88
2022/08/08 13:38:39;;;;;;;2.40;2.03;;;24.80;40.00;;;;;;6126236;23;20441;-88
2022/08/08 13:41:08;;;;;;;2.33;2.13;;;24.80;40.50;;;;;;6103041;23;20409;-87
2022/08/08 13:43:45;;;;;;;2.20;1.90;;;24.80;39.20;;;;;;6126432;23;20552;-86
2022/08/08 13:46:16;;;;;;;3.17;1.93;;;24.80;39.20;;;;;;6152505;23;20394;-87
2022/08/08 13:48:56;;;;;;;1.80;1.70;;;24.80;39.20;;;;;;6150644;23;20948;-86
2022/08/08 13:51:56;;;;;;;2.43;2.00;;;24.80;39.20;;;;;;6127851;23;20382;-86
2022/08/08 13:54:26;;;;;;;2.63;2.43;;;24.80;39.20;;;;;;6126811;23;20438;-88
2022/08/08 13:57:03;;;;;;;3.00;2.30;;;24.80;39.20;;;;;;6152726;23;20724;-87
2022/08/08 13:59:41;;;;;;;3.13;2.20;;;24.80;39.20;;;;;;6126585;23;20433;-87
2022/08/08 14:02:19;;;;;;;3.30;2.60;;;24.80;39.30;;;;;;6127623;23;20492;-86
2022/08/08 14:04:53;;;;;;;2.40;2.00;;;24.90;39.30;;;;;;6126874;23;20466;-88
2022/08/08 14:07:22;;;;;;;3.40;3.10;;;24.90;39.30;;;;;;6127835;23;20461;-86
2022/08/08 14:09:51;;;;;;;2.37;2.17;;;24.80;39.20;;;;;;6152033;23;20433;-86
2022/08/08 14:12:40;;;;;;;2.87;2.10;;;24.90;39.30;;;;;;6127236;23;20413;-89
2022/08/08 14:15:26;;;;;;;2.50;2.30;;;24.90;39.30;;;;;;6102576;23;20433;-86
2022/08/08 14:18:08;;;;;;;2.33;2.07;;;24.90;39.40;;;;;;6115219;23;20496;-87
2022/08/08 14:21:02;;;;;;;2.40;2.17;;;24.90;39.30;;;;;;6127797;23;20390;-88
2022/08/08 14:23:41;;;;;;;1.80;1.70;;;24.90;39.40;;;;;;6126077;23;20425;-86